createdAt,value
2022-09-01T00:00:49.160Z,80.63
2022-09-01T00:01:47.166Z,80.32
2022-09-01T00:02:47.188Z,80.63
2022-09-01T00:03:48.114Z,81.58
2022-09-01T00:04:47.241Z,82.80
2022-09-01T00:05:47.149Z,82.50
2022-09-01T00:06:47.140Z,82.50
2022-09-01T00:07:47.110Z,81.07
2022-09-01T00:08:47.152Z,81.58
2022-09-01T00:09:47.097Z,83.56
2022-09-01T00:10:47.166Z,83.04
2022-09-01T00:11:50.401Z,82.54
2022-09-01T00:12:47.076Z,84.96
2022-09-01T00:13:47.093Z,84.66
2022-09-01T00:14:47.063Z,85.06
2022-09-01T00:15:47.170Z,86.18
2022-09-01T00:16:47.051Z,85.47
2022-09-01T00:17:47.064Z,85.88
2022-09-01T00:18:47.067Z,85.98
2022-09-01T00:19:47.067Z,86.80
2022-09-01T00:20:47.084Z,85.47
2022-09-01T00:21:47.089Z,85.77
2022-09-01T00:22:47.914Z,85.37
2022-09-01T00:23:47.066Z,84.72
2022-09-01T00:24:47.607Z,84.82
2022-09-01T00:25:46.983Z,83.49
2022-09-01T00:26:47.010Z,84.96
2022-09-01T00:27:47.017Z,86.22
2022-09-01T00:28:47.024Z,87.49
2022-09-01T00:29:46.982Z,87.70
2022-09-01T00:30:47.036Z,87.70
2022-09-01T00:31:46.951Z,87.85
2022-09-01T00:32:46.999Z,87.14
2022-09-01T00:33:47.032Z,86.83
2022-09-01T00:34:46.957Z,85.30
2022-09-01T00:35:46.924Z,85.47
2022-09-01T00:36:46.950Z,85.21
2022-09-01T00:37:46.910Z,87.04
2022-09-01T00:38:46.912Z,86.83
2022-09-01T00:39:46.912Z,86.16
2022-09-01T00:40:46.975Z,86.88
2022-09-01T00:41:46.878Z,87.38
2022-09-01T00:42:46.895Z,86.98
2022-09-01T00:43:46.940Z,87.23
2022-09-01T00:44:46.896Z,87.73
2022-09-01T00:45:46.908Z,88.96
2022-09-01T00:46:51.018Z,88.14
2022-09-01T00:47:47.844Z,86.47
2022-09-01T00:48:46.841Z,86.06
2022-09-01T00:49:46.844Z,86.06
2022-09-01T00:50:47.276Z,87.67
2022-09-01T00:51:46.816Z,88.85
2022-09-01T00:52:46.799Z,88.14
2022-09-01T00:53:46.840Z,88.04
2022-09-01T00:54:46.856Z,88.24
2022-09-01T00:55:46.791Z,88.79
2022-09-01T00:56:46.782Z,88.70
2022-09-01T00:57:46.762Z,87.98
2022-09-01T00:58:46.770Z,89.58
2022-09-01T00:59:46.789Z,88.24
2022-09-01T01:00:46.761Z,87.43
2022-09-01T01:01:46.795Z,86.47
2022-09-01T01:02:46.783Z,86.06
2022-09-01T01:03:46.735Z,85.96
2022-09-01T01:04:46.742Z,85.41
2022-09-01T01:05:46.745Z,85.51
2022-09-01T01:06:46.698Z,85.45
2022-09-01T01:07:47.486Z,85.86
2022-09-01T01:08:46.712Z,85.89
2022-09-01T01:09:46.701Z,86.20
2022-09-01T01:10:46.683Z,86.10
2022-09-01T01:11:46.673Z,86.00
2022-09-01T01:12:46.683Z,87.43
2022-09-01T01:13:46.661Z,87.47
2022-09-01T01:14:46.673Z,85.89
2022-09-01T01:15:46.634Z,86.41
2022-09-01T01:16:46.699Z,86.61
2022-09-01T01:17:46.646Z,86.82
2022-09-01T01:18:46.634Z,86.61
2022-09-01T01:19:46.727Z,85.94
2022-09-01T01:20:46.614Z,86.04
2022-09-01T01:21:46.621Z,86.65
2022-09-01T01:22:46.601Z,86.26
2022-09-01T01:23:46.598Z,85.55
2022-09-01T01:24:46.616Z,85.28
2022-09-01T01:25:46.565Z,85.59
2022-09-01T01:26:46.590Z,85.28
2022-09-01T01:27:46.557Z,85.79
2022-09-01T01:28:46.570Z,85.28
2022-09-01T01:29:46.577Z,85.18
2022-09-01T01:30:46.595Z,84.88
2022-09-01T01:31:46.584Z,84.83
2022-09-01T01:32:46.531Z,84.33
2022-09-01T01:33:46.514Z,84.42
2022-09-01T01:34:48.609Z,84.01
2022-09-01T01:35:46.554Z,84.12
2022-09-01T01:36:46.491Z,85.08
2022-09-01T01:37:46.513Z,85.38
2022-09-01T01:38:46.478Z,85.89
2022-09-01T01:39:46.484Z,87.06
2022-09-01T01:40:46.646Z,86.59
2022-09-01T01:41:46.454Z,87.82
2022-09-01T01:42:46.465Z,87.71
2022-09-01T01:43:46.450Z,87.24
2022-09-01T01:44:46.456Z,87.35
2022-09-01T01:45:46.434Z,87.85
2022-09-01T01:46:46.432Z,87.71
2022-09-01T01:47:46.435Z,87.65
2022-09-01T01:48:46.477Z,88.06
2022-09-01T01:49:46.416Z,88.47
2022-09-01T01:50:46.489Z,88.78
2022-09-01T01:51:46.392Z,88.88
2022-09-01T01:52:46.397Z,88.41
2022-09-01T01:53:46.371Z,89.23
2022-09-01T01:54:46.408Z,89.53
2022-09-01T01:55:47.359Z,89.74
2022-09-01T01:56:46.403Z,89.64
2022-09-01T01:57:46.337Z,89.43
2022-09-01T01:58:46.396Z,89.33
2022-09-01T01:59:46.360Z,89.53
2022-09-01T02:00:46.390Z,89.74
2022-09-01T02:01:46.375Z,89.74
2022-09-01T02:02:46.331Z,89.09
2022-09-01T02:03:46.334Z,89.09
2022-09-01T02:04:46.316Z,88.31
2022-09-01T02:05:46.292Z,89.12
2022-09-01T02:06:46.325Z,89.78
2022-09-01T02:07:46.291Z,90.70
2022-09-01T02:08:46.286Z,90.60
2022-09-01T02:09:46.290Z,90.60
2022-09-01T02:10:46.285Z,91.67
2022-09-01T02:11:46.253Z,92.59
2022-09-01T02:12:46.252Z,91.26
2022-09-01T02:13:46.275Z,91.63
2022-09-01T02:14:46.319Z,90.39
2022-09-01T02:15:46.233Z,89.89
2022-09-01T02:16:46.301Z,91.52
2022-09-01T02:17:46.227Z,91.01
2022-09-01T02:18:46.214Z,90.81
2022-09-01T02:19:46.217Z,90.84
2022-09-01T02:20:46.214Z,91.67
2022-09-01T02:21:46.183Z,91.77
2022-09-01T02:22:46.168Z,92.22
2022-09-01T02:23:46.183Z,91.87
2022-09-01T02:24:46.191Z,91.61
2022-09-01T02:26:13.983Z,91.40
2022-09-01T02:26:48.149Z,91.77
2022-09-01T02:27:46.146Z,91.56
2022-09-01T02:28:47.404Z,91.46
2022-09-01T02:29:46.189Z,89.47
2022-09-01T02:30:46.200Z,89.37
2022-09-01T02:31:46.110Z,90.13
2022-09-01T02:32:46.101Z,90.03
2022-09-01T02:33:46.104Z,90.34
2022-09-01T02:34:46.263Z,90.09
2022-09-01T02:35:46.101Z,90.44
2022-09-01T02:36:46.111Z,89.78
2022-09-01T02:37:46.088Z,90.19
2022-09-01T02:38:46.885Z,90.64
2022-09-01T02:39:47.079Z,91.09
2022-09-01T02:40:46.097Z,91.09
2022-09-01T02:41:46.058Z,91.71
2022-09-01T02:42:46.040Z,90.99
2022-09-01T02:43:46.042Z,92.74
2022-09-01T02:44:46.048Z,92.12
2022-09-01T02:45:46.071Z,92.36
2022-09-01T02:46:46.006Z,91.75
2022-09-01T02:47:46.032Z,92.72
2022-09-01T02:48:46.268Z,93.39
2022-09-01T02:49:46.017Z,94.42
2022-09-01T02:50:45.979Z,94.21
2022-09-01T02:51:45.971Z,92.61
2022-09-01T02:52:45.991Z,93.39
2022-09-01T02:53:45.984Z,93.64
2022-09-01T02:54:45.981Z,94.26
2022-09-01T02:55:45.957Z,94.26
2022-09-01T02:56:45.951Z,94.77
2022-09-01T02:57:45.930Z,94.21
2022-09-01T02:58:45.935Z,94.11
2022-09-01T02:59:45.956Z,94.07
2022-09-01T03:00:45.927Z,93.35
2022-09-01T03:01:45.926Z,93.04
2022-09-01T03:02:45.898Z,90.99
2022-09-01T03:03:45.893Z,91.77
2022-09-01T03:04:45.933Z,90.84
2022-09-01T03:05:45.876Z,90.99
2022-09-01T03:06:45.910Z,92.57
2022-09-01T03:07:45.888Z,93.19
2022-09-01T03:08:45.868Z,92.98
2022-09-01T03:09:45.882Z,93.66
2022-09-01T03:10:45.843Z,93.04
2022-09-01T03:11:45.871Z,92.53
2022-09-01T03:12:45.840Z,92.06
2022-09-01T03:13:45.827Z,93.60
2022-09-01T03:14:45.969Z,92.98
2022-09-01T03:15:45.833Z,91.75
2022-09-01T03:16:45.848Z,93.44
2022-09-01T03:17:45.819Z,94.62
2022-09-01T03:18:45.791Z,94.21
2022-09-01T03:19:45.828Z,93.80
2022-09-01T03:20:45.783Z,92.88
2022-09-01T03:21:45.771Z,92.78
2022-09-01T03:22:45.763Z,92.98
2022-09-01T03:23:45.770Z,91.80
2022-09-01T03:24:45.776Z,94.36
2022-09-01T03:25:45.778Z,95.59
2022-09-01T03:26:45.747Z,95.24
2022-09-01T03:27:45.736Z,94.78
2022-09-01T03:28:45.737Z,91.44
2022-09-01T03:29:45.788Z,93.19
2022-09-01T03:30:45.730Z,94.01
2022-09-01T03:31:45.786Z,94.11
2022-09-01T03:32:45.700Z,94.21
2022-09-01T03:33:45.902Z,92.36
2022-09-01T03:34:45.730Z,91.24
2022-09-01T03:35:45.705Z,94.30
2022-09-01T03:36:45.671Z,94.71
2022-09-01T03:37:45.664Z,95.23
2022-09-01T03:38:45.667Z,95.90
2022-09-01T03:39:46.537Z,94.92
2022-09-01T03:40:45.714Z,94.77
2022-09-01T03:41:45.639Z,93.68
2022-09-01T03:42:45.623Z,93.48
2022-09-01T03:43:46.943Z,94.40
2022-09-01T03:44:47.867Z,96.15
2022-09-01T03:45:45.677Z,95.74
2022-09-01T03:46:45.605Z,94.92
2022-09-01T03:47:45.642Z,94.34
2022-09-01T03:48:45.590Z,95.06
2022-09-01T03:49:45.573Z,96.65
2022-09-01T03:50:45.599Z,96.81
2022-09-01T03:51:45.602Z,97.02
2022-09-01T03:52:45.561Z,96.30
2022-09-01T03:53:45.541Z,95.01
2022-09-01T03:54:45.558Z,96.23
2022-09-01T03:55:45.586Z,97.57
2022-09-01T03:56:45.558Z,97.99
2022-09-01T03:57:45.549Z,97.94
2022-09-01T03:58:45.523Z,97.53
2022-09-01T03:59:45.529Z,97.94
2022-09-01T04:00:48.838Z,98.04
2022-09-01T04:01:45.512Z,97.17
2022-09-01T04:02:45.496Z,97.12
2022-09-01T04:03:46.530Z,96.40
2022-09-01T04:04:45.492Z,95.89
2022-09-01T04:05:45.514Z,96.91
2022-09-01T04:06:45.470Z,97.22
2022-09-01T04:07:45.496Z,97.88
2022-09-01T04:08:45.450Z,97.99
2022-09-01T04:09:45.442Z,98.76
2022-09-01T04:10:45.484Z,97.22
2022-09-01T04:11:46.129Z,96.70
2022-09-01T04:12:46.439Z,97.27
2022-09-01T04:13:45.416Z,97.94
2022-09-01T04:14:45.412Z,98.29
2022-09-01T04:15:45.446Z,97.53
2022-09-01T04:16:45.531Z,96.70
2022-09-01T04:17:45.389Z,96.77
2022-09-01T04:18:45.386Z,96.56
2022-09-01T04:19:45.382Z,97.69
2022-09-01T04:20:45.435Z,96.25
2022-09-01T04:21:45.386Z,96.45
2022-09-01T04:22:45.381Z,96.15
2022-09-01T04:23:45.391Z,96.19
2022-09-01T04:24:45.383Z,94.04
2022-09-01T04:25:45.396Z,96.09
2022-09-01T04:26:45.448Z,97.94
2022-09-01T04:27:45.332Z,97.94
2022-09-01T04:28:45.346Z,96.91
2022-09-01T04:29:45.307Z,96.30
2022-09-01T04:30:45.357Z,97.02
2022-09-01T04:31:45.333Z,97.42
2022-09-01T04:32:45.295Z,96.70
2022-09-01T04:33:45.281Z,97.02
2022-09-01T04:34:46.272Z,97.57
2022-09-01T04:35:45.306Z,97.78
2022-09-01T04:36:45.265Z,98.60
2022-09-01T04:37:45.264Z,98.96
2022-09-01T04:38:45.280Z,98.25
2022-09-01T04:39:45.252Z,98.04
2022-09-01T04:40:45.365Z,98.66
2022-09-01T04:41:45.253Z,98.76
2022-09-01T04:42:45.229Z,99.58
2022-09-01T04:43:45.209Z,98.55
2022-09-01T04:44:45.213Z,96.09
2022-09-01T04:45:45.302Z,96.81
2022-09-01T04:46:45.187Z,97.32
2022-09-01T04:47:45.221Z,98.04
2022-09-01T04:48:46.049Z,98.29
2022-09-01T04:49:46.173Z,98.39
2022-09-01T04:50:45.191Z,99.27
2022-09-01T04:51:45.166Z,99.27
2022-09-01T04:52:45.171Z,98.45
2022-09-01T04:53:45.154Z,97.42
2022-09-01T04:54:45.149Z,97.12
2022-09-01T04:55:45.174Z,96.70
2022-09-01T04:56:45.127Z,97.94
2022-09-01T04:57:45.115Z,98.66
2022-09-01T04:58:45.142Z,96.87
2022-09-01T04:59:45.130Z,95.78
2022-09-01T05:00:45.185Z,98.25
2022-09-01T05:01:45.147Z,98.71
2022-09-01T05:02:45.118Z,98.30
2022-09-01T05:03:45.077Z,97.38
2022-09-01T05:04:45.113Z,97.38
2022-09-01T05:05:45.073Z,97.58
2022-09-01T05:06:45.054Z,96.04
2022-09-01T05:07:45.083Z,96.04
2022-09-01T05:08:45.055Z,96.35
2022-09-01T05:09:45.096Z,97.28
2022-09-01T05:10:45.027Z,97.13
2022-09-01T05:11:45.020Z,96.97
2022-09-01T05:12:45.084Z,96.15
2022-09-01T05:13:44.997Z,96.25
2022-09-01T05:14:45.001Z,96.41
2022-09-01T05:15:45.011Z,96.20
2022-09-01T05:16:45.095Z,96.51
2022-09-01T05:17:44.985Z,95.07
2022-09-01T05:18:44.962Z,95.07
2022-09-01T05:19:44.989Z,95.86
2022-09-01T05:20:44.977Z,96.22
2022-09-01T05:21:44.969Z,94.99
2022-09-01T05:22:44.958Z,94.37
2022-09-01T05:23:44.987Z,94.02
2022-09-01T05:24:44.957Z,94.12
2022-09-01T05:25:44.961Z,93.98
2022-09-01T05:26:44.912Z,92.75
2022-09-01T05:27:44.913Z,92.34
2022-09-01T05:28:44.914Z,91.99
2022-09-01T05:29:44.895Z,91.83
2022-09-01T05:30:45.050Z,90.97
2022-09-01T05:31:44.914Z,91.07
2022-09-01T05:32:44.888Z,90.77
2022-09-01T05:33:44.893Z,90.21
2022-09-01T05:34:44.877Z,89.90
2022-09-01T05:35:44.880Z,89.56
2022-09-01T05:36:44.844Z,89.35
2022-09-01T05:37:44.883Z,89.15
2022-09-01T05:38:44.865Z,88.84
2022-09-01T05:39:44.867Z,88.53
2022-09-01T05:40:44.869Z,89.04
2022-09-01T05:41:44.810Z,88.29
2022-09-01T05:42:44.825Z,88.59
2022-09-01T05:43:44.836Z,88.70
2022-09-01T05:44:45.797Z,88.29
2022-09-01T05:46:03.333Z,88.49
2022-09-01T05:46:46.850Z,88.49
2022-09-01T05:47:44.771Z,88.18
2022-09-01T05:48:44.770Z,88.45
2022-09-01T05:49:44.778Z,88.14
2022-09-01T05:50:44.882Z,87.84
2022-09-01T05:51:45.905Z,88.35
2022-09-01T05:52:45.760Z,88.24
2022-09-01T05:53:44.729Z,87.73
2022-09-01T05:54:45.479Z,87.23
2022-09-01T05:55:44.851Z,87.32
2022-09-01T05:56:45.081Z,86.91
2022-09-01T05:57:44.703Z,87.02
2022-09-01T05:59:46.840Z,86.36
2022-09-01T06:00:44.719Z,86.63
2022-09-01T06:01:49.480Z,85.92
2022-09-01T06:02:46.811Z,86.33
2022-09-01T06:03:44.653Z,86.67
2022-09-01T06:04:44.686Z,87.65
2022-09-01T06:05:44.858Z,87.85
2022-09-01T06:07:04.125Z,89.02
2022-09-01T06:07:46.632Z,89.02
2022-09-01T06:08:46.683Z,88.82
2022-09-01T06:09:44.632Z,88.51
2022-09-01T06:10:44.634Z,89.67
2022-09-01T06:11:44.600Z,88.71
2022-09-01T06:12:45.629Z,88.51
2022-09-01T06:13:44.621Z,87.24
2022-09-01T06:14:44.617Z,86.53
2022-09-01T06:15:44.599Z,85.88
2022-09-01T06:16:44.675Z,85.77
2022-09-01T06:17:44.576Z,85.43
2022-09-01T06:18:44.614Z,85.33
2022-09-01T06:19:44.578Z,84.72
2022-09-01T06:20:44.564Z,84.06
2022-09-01T06:21:44.563Z,83.56
2022-09-01T06:22:44.532Z,83.96
2022-09-01T06:23:44.528Z,82.54
2022-09-01T06:24:47.233Z,82.40
2022-09-01T06:25:45.533Z,82.29
2022-09-01T06:26:44.536Z,82.09
2022-09-01T06:27:44.503Z,82.50
2022-09-01T06:28:44.496Z,81.79
2022-09-01T06:29:44.488Z,81.95
2022-09-01T06:30:44.509Z,81.74
2022-09-01T06:31:44.577Z,81.54
2022-09-01T06:32:44.497Z,80.83
2022-09-01T06:33:44.529Z,80.69
2022-09-01T06:34:44.487Z,80.49
2022-09-01T06:35:44.466Z,80.18
2022-09-01T06:36:44.438Z,80.29
2022-09-01T06:37:44.425Z,79.57
2022-09-01T06:38:44.435Z,79.33
2022-09-01T06:39:44.419Z,79.23
2022-09-01T06:40:44.528Z,79.02
2022-09-01T06:41:44.409Z,78.01
2022-09-01T06:42:44.462Z,78.11
2022-09-01T06:43:44.376Z,77.26
2022-09-01T06:44:45.364Z,76.86
2022-09-01T06:45:44.402Z,77.02
2022-09-01T06:46:44.402Z,76.41
2022-09-01T06:47:44.360Z,76.37
2022-09-01T06:48:44.366Z,77.49
2022-09-01T06:49:44.336Z,76.14
2022-09-01T06:51:46.329Z,76.14
2022-09-01T06:53:46.557Z,75.29
2022-09-01T06:54:44.400Z,74.48
2022-09-01T06:55:44.328Z,75.09
2022-09-01T06:56:44.984Z,74.65
2022-09-01T06:58:46.284Z,74.24
2022-09-01T06:59:44.301Z,74.24
2022-09-01T07:00:44.306Z,74.34
2022-09-01T07:01:44.391Z,74.65
2022-09-01T07:02:44.346Z,73.70
2022-09-01T07:03:44.258Z,72.78
2022-09-01T07:04:44.246Z,73.09
2022-09-01T07:07:54.300Z,72.14
2022-09-01T07:09:49.833Z,72.45
2022-09-01T07:13:05.058Z,72.11
2022-09-01T07:14:16.144Z,72.21
2022-09-01T07:17:46.162Z,70.32
2022-09-01T07:18:44.815Z,70.02
2022-09-01T07:19:49.184Z,68.80
2022-09-01T07:22:07.177Z,69.18
2022-09-01T07:23:46.672Z,68.33
2022-09-01T07:24:45.140Z,68.43
2022-09-01T07:26:47.302Z,67.80
2022-09-01T07:27:45.135Z,66.86
2022-09-01T07:28:44.154Z,66.65
2022-09-01T07:29:44.123Z,66.25
2022-09-01T07:30:44.175Z,66.42
2022-09-01T07:31:52.192Z,65.28
2022-09-01T07:33:45.660Z,64.64
2022-09-01T07:34:46.133Z,63.73
2022-09-01T07:36:25.564Z,64.11
2022-09-01T07:38:49.437Z,63.40
2022-09-01T07:39:48.637Z,62.90
2022-09-01T07:41:44.230Z,72.96
2022-09-01T07:42:30.043Z,73.16
2022-09-01T07:42:59.280Z,65.05
2022-09-01T07:43:45.958Z,62.26
2022-09-01T07:44:44.227Z,63.00
2022-09-01T07:45:57.580Z,62.80
2022-09-01T07:46:45.998Z,63.30
2022-09-01T07:47:59.367Z,63.23
2022-09-01T07:49:02.922Z,63.00
2022-09-01T07:50:24.212Z,62.29
2022-09-01T07:51:45.955Z,61.93
2022-09-01T07:52:43.916Z,62.04
2022-09-01T07:53:43.939Z,61.30
2022-09-01T07:54:43.904Z,61.03
2022-09-01T07:55:44.165Z,60.93
2022-09-01T07:56:43.902Z,61.57
2022-09-01T07:57:43.873Z,60.57
2022-09-01T07:58:43.904Z,60.16
2022-09-01T07:59:43.857Z,59.96
2022-09-01T08:00:43.870Z,60.57
2022-09-01T08:01:43.948Z,59.56
2022-09-01T08:02:43.946Z,60.27
2022-09-01T08:03:43.832Z,59.33
2022-09-01T08:04:43.821Z,59.94
2022-09-01T08:05:43.845Z,60.33
2022-09-01T08:06:43.843Z,59.74
2022-09-01T08:07:58.682Z,59.66
2022-09-01T08:08:45.803Z,59.36
2022-09-01T08:09:44.368Z,59.36
2022-09-01T08:10:43.806Z,59.83
2022-09-01T08:12:02.365Z,57.92
2022-09-01T08:12:45.789Z,59.33
2022-09-01T08:13:43.782Z,58.80
2022-09-01T08:14:43.745Z,58.17
2022-09-01T08:16:53.410Z,57.64
2022-09-01T08:17:52.917Z,57.34
2022-09-01T08:18:49.485Z,57.04
2022-09-01T08:19:44.721Z,57.59
2022-09-01T08:20:43.743Z,57.90
2022-09-01T08:21:43.711Z,58.20
2022-09-01T08:22:43.697Z,58.93
2022-09-01T08:23:44.390Z,59.53
2022-09-01T08:24:44.689Z,59.50
2022-09-01T08:25:43.675Z,58.17
2022-09-01T08:26:43.679Z,57.64
2022-09-01T08:27:43.666Z,57.84
2022-09-01T08:28:54.358Z,57.24
2022-09-01T08:29:45.640Z,56.63
2022-09-01T08:30:52.280Z,56.91
2022-09-01T08:31:44.667Z,55.71
2022-09-01T08:32:43.625Z,56.88
2022-09-01T08:33:43.633Z,55.78
2022-09-01T08:34:43.629Z,55.18
2022-09-01T08:35:43.669Z,55.65
2022-09-01T08:36:43.609Z,55.75
2022-09-01T08:37:43.600Z,54.82
2022-09-01T08:38:43.584Z,54.10
2022-09-01T08:39:43.609Z,54.02
2022-09-01T08:40:43.647Z,54.22
2022-09-01T08:41:46.368Z,54.80
2022-09-01T08:42:43.563Z,54.00
2022-09-01T08:43:43.547Z,54.10
2022-09-01T08:44:43.558Z,52.87
2022-09-01T08:45:43.529Z,53.72
2022-09-01T08:46:43.619Z,53.89
2022-09-01T08:48:04.686Z,53.39
2022-09-01T08:49:46.066Z,53.57
2022-09-01T08:50:43.486Z,53.17
2022-09-01T08:51:43.530Z,53.34
2022-09-01T08:52:43.472Z,51.74
2022-09-01T08:53:43.494Z,52.07
2022-09-01T08:54:43.483Z,51.44
2022-09-01T08:55:43.484Z,52.22
2022-09-01T08:56:43.526Z,51.82
2022-09-01T08:57:43.979Z,52.32
2022-09-01T08:58:44.087Z,51.62
2022-09-01T08:59:43.463Z,51.72
2022-09-01T09:00:43.637Z,51.69
2022-09-01T09:01:43.512Z,52.67
2022-09-01T09:02:43.515Z,50.67
2022-09-01T09:03:43.466Z,50.47
2022-09-01T09:04:43.408Z,50.27
2022-09-01T09:05:43.436Z,49.29
2022-09-01T09:06:43.413Z,49.90
2022-09-01T09:07:43.389Z,50.29
2022-09-01T09:08:43.365Z,51.20
2022-09-01T09:09:47.773Z,50.92
2022-09-01T09:10:44.370Z,51.50
2022-09-01T09:11:43.359Z,50.87
2022-09-01T09:12:49.876Z,49.99
2022-09-01T09:13:45.355Z,50.99
2022-09-01T09:14:43.333Z,51.12
2022-09-01T09:15:43.420Z,51.74
2022-09-01T09:16:43.318Z,51.59
2022-09-01T09:17:43.337Z,50.77
2022-09-01T09:18:54.865Z,49.65
2022-09-01T09:19:45.289Z,48.55
2022-09-01T09:20:43.374Z,49.22
2022-09-01T09:21:43.301Z,48.40
2022-09-01T09:22:43.288Z,49.15
2022-09-01T09:23:43.323Z,48.23
2022-09-01T09:24:43.275Z,47.02
2022-09-01T09:25:43.290Z,46.77
2022-09-01T09:26:43.400Z,44.70
2022-09-01T09:27:43.249Z,46.73
2022-09-01T09:28:43.282Z,46.94
2022-09-01T09:29:45.460Z,46.81
2022-09-01T09:30:43.290Z,46.30
2022-09-01T09:31:43.233Z,44.50
2022-09-01T09:33:11.749Z,44.68
2022-09-01T09:33:51.608Z,44.78
2022-09-01T09:34:45.203Z,45.00
2022-09-01T09:35:43.220Z,44.76
2022-09-01T09:36:43.197Z,43.84
2022-09-01T09:37:43.181Z,43.70
2022-09-01T09:38:44.095Z,42.47
2022-09-01T09:39:43.180Z,41.67
2022-09-01T09:41:07.562Z,42.49
2022-09-01T09:41:45.213Z,43.15
2022-09-01T09:42:43.147Z,44.22
2022-09-01T09:43:44.465Z,41.91
2022-09-01T09:44:43.136Z,42.49
2022-09-01T09:45:43.277Z,42.19
2022-09-01T09:46:43.704Z,42.19
2022-09-01T09:47:44.709Z,42.51
2022-09-01T09:48:44.106Z,42.75
2022-09-01T09:49:48.210Z,42.23
2022-09-01T09:50:45.093Z,43.84
2022-09-01T09:51:43.099Z,43.44
2022-09-01T09:52:43.062Z,41.63
2022-09-01T09:53:43.068Z,42.80
2022-09-01T09:54:43.060Z,40.98
2022-09-01T09:55:43.057Z,41.55
2022-09-01T09:56:43.051Z,41.47
2022-09-01T09:57:43.052Z,40.76
2022-09-01T09:58:43.030Z,40.66
2022-09-01T10:00:00.921Z,39.83
2022-09-01T10:00:45.036Z,39.53
2022-09-01T10:01:43.128Z,39.63
2022-09-01T10:02:43.016Z,38.62
2022-09-01T10:03:43.036Z,37.81
2022-09-01T10:04:42.992Z,37.83
2022-09-01T10:05:43.424Z,38.62
2022-09-01T10:06:44.381Z,38.82
2022-09-01T10:07:42.971Z,39.42
2022-09-01T10:08:42.956Z,38.59
2022-09-01T10:09:42.958Z,38.07
2022-09-01T10:10:42.964Z,37.58
2022-09-01T10:11:44.186Z,37.36
2022-09-01T10:12:42.914Z,37.98
2022-09-01T10:13:42.960Z,37.48
2022-09-01T10:14:53.507Z,37.98
2022-09-01T10:15:44.924Z,36.88
2022-09-01T10:16:42.982Z,36.87
2022-09-01T10:17:43.575Z,36.85
2022-09-01T10:18:43.934Z,36.73
2022-09-01T10:19:42.904Z,36.73
2022-09-01T10:20:42.897Z,35.83
2022-09-01T10:21:42.890Z,36.54
2022-09-01T10:22:42.889Z,35.73
2022-09-01T10:23:42.867Z,34.94
2022-09-01T10:24:45.850Z,33.91
2022-09-01T10:25:44.506Z,34.15
2022-09-01T10:26:42.860Z,34.41
2022-09-01T10:27:42.824Z,35.31
2022-09-01T10:28:48.845Z,36.78
2022-09-01T10:29:50.289Z,35.08
2022-09-01T10:30:43.883Z,35.38
2022-09-01T10:31:42.829Z,33.95
2022-09-01T10:32:50.740Z,33.72
2022-09-01T10:33:43.784Z,34.03
2022-09-01T10:34:42.768Z,33.23
2022-09-01T10:35:42.780Z,32.95
2022-09-01T10:36:46.931Z,32.98
2022-09-01T10:37:42.758Z,32.79
2022-09-01T10:38:46.366Z,33.59
2022-09-01T10:39:43.851Z,33.07
2022-09-01T10:40:44.143Z,32.87
2022-09-01T10:41:42.768Z,33.13
2022-09-01T10:42:45.322Z,33.31
2022-09-01T10:43:43.804Z,32.33
2022-09-01T10:44:42.710Z,31.35
2022-09-01T10:45:42.776Z,30.94
2022-09-01T10:46:48.979Z,31.76
2022-09-01T10:47:43.887Z,33.36
2022-09-01T10:48:55.540Z,38.18
2022-09-01T10:49:47.086Z,38.70
2022-09-01T10:50:43.667Z,38.28
2022-09-01T10:51:50.442Z,38.40
2022-09-01T10:52:50.292Z,39.21
2022-09-01T10:53:43.651Z,38.42
2022-09-01T10:54:55.889Z,39.29
2022-09-01T10:55:44.641Z,36.52
2022-09-01T10:56:44.310Z,34.95
2022-09-01T10:57:43.644Z,34.48
2022-09-01T10:59:55.783Z,36.77
2022-09-01T11:01:10.548Z,37.01
2022-09-01T11:01:48.930Z,39.75
2022-09-01T11:02:46.678Z,39.45
2022-09-01T11:03:51.470Z,39.83
2022-09-01T11:04:43.711Z,39.37
2022-09-01T11:05:42.569Z,35.89
2022-09-01T11:06:42.883Z,34.27
2022-09-01T11:08:00.899Z,31.24
2022-09-01T11:08:50.877Z,31.67
2022-09-01T11:09:43.548Z,30.46
2022-09-01T11:10:42.542Z,30.96
2022-09-01T11:11:42.547Z,30.71
2022-09-01T11:12:42.525Z,30.27
2022-09-01T11:13:46.277Z,27.71
2022-09-01T11:14:43.538Z,27.67
2022-09-01T11:15:42.512Z,27.47
2022-09-01T11:16:46.238Z,26.38
2022-09-01T11:17:43.550Z,25.88
2022-09-01T11:18:42.497Z,26.69
2022-09-01T11:19:44.145Z,28.69
2022-09-01T11:20:42.488Z,28.40
2022-09-01T11:21:42.516Z,26.72
2022-09-01T11:22:42.464Z,29.76
2022-09-01T11:23:42.478Z,31.99
2022-09-01T11:24:42.557Z,33.64
2022-09-01T11:25:42.434Z,34.68
2022-09-01T11:26:42.453Z,34.91
2022-09-01T11:27:42.443Z,36.10
2022-09-01T11:28:42.435Z,36.20
2022-09-01T11:29:42.400Z,36.11
2022-09-01T11:30:42.409Z,35.92
2022-09-01T11:31:42.484Z,36.93
2022-09-01T11:32:46.753Z,35.16
2022-09-01T11:33:43.387Z,32.80
2022-09-01T11:34:42.394Z,30.76
2022-09-01T11:35:42.367Z,30.54
2022-09-01T11:36:42.388Z,29.41
2022-09-01T11:37:42.360Z,29.28
2022-09-01T11:38:42.342Z,28.68
2022-09-01T11:39:42.463Z,27.09
2022-09-01T11:40:42.484Z,27.42
2022-09-01T11:41:43.074Z,29.35
2022-09-01T11:42:46.617Z,30.58
2022-09-01T11:43:42.323Z,30.89
2022-09-01T11:44:42.635Z,30.24
2022-09-01T11:45:42.351Z,29.21
2022-09-01T11:46:42.339Z,30.44
2022-09-01T11:47:42.291Z,32.89
2022-09-01T11:48:42.312Z,35.57
2022-09-01T11:49:42.297Z,35.77
2022-09-01T11:50:42.272Z,35.85
2022-09-01T11:51:42.286Z,35.75
2022-09-01T11:52:42.258Z,35.85
2022-09-01T11:53:42.253Z,35.66
2022-09-01T11:54:42.249Z,36.87
2022-09-01T11:55:42.232Z,36.94
2022-09-01T11:56:42.293Z,35.80
2022-09-01T11:57:42.229Z,33.23
2022-09-01T11:58:42.219Z,33.61
2022-09-01T11:59:42.205Z,31.35
2022-09-01T12:00:42.218Z,29.31
2022-09-01T12:01:42.220Z,29.27
2022-09-01T12:02:42.338Z,29.17
2022-09-01T12:03:42.247Z,28.78
2022-09-01T12:04:42.176Z,30.35
2022-09-01T12:05:42.164Z,29.24
2022-09-01T12:06:42.171Z,28.27
2022-09-01T12:07:42.157Z,29.43
2022-09-01T12:08:42.143Z,30.66
2022-09-01T12:09:42.883Z,31.99
2022-09-01T12:10:42.128Z,32.62
2022-09-01T12:11:42.164Z,33.04
2022-09-01T12:12:42.133Z,33.07
2022-09-01T12:13:42.114Z,33.98
2022-09-01T12:15:04.323Z,34.20
2022-09-01T12:16:07.009Z,34.91
2022-09-01T12:16:44.157Z,34.83
2022-09-01T12:17:42.074Z,35.03
2022-09-01T12:18:43.086Z,35.62
2022-09-01T12:19:42.075Z,35.46
2022-09-01T12:20:42.088Z,35.26
2022-09-01T12:21:42.073Z,35.06
2022-09-01T12:22:42.084Z,36.07
2022-09-01T12:23:42.048Z,35.85
2022-09-01T12:24:42.036Z,35.85
2022-09-01T12:25:42.059Z,35.75
2022-09-01T12:26:42.068Z,35.66
2022-09-01T12:27:42.021Z,35.38
2022-09-01T12:28:42.012Z,35.66
2022-09-01T12:29:42.005Z,35.75
2022-09-01T12:30:42.002Z,35.55
2022-09-01T12:31:42.097Z,34.46
2022-09-01T12:32:41.991Z,35.26
2022-09-01T12:33:41.979Z,36.45
2022-09-01T12:34:41.982Z,35.24
2022-09-01T12:35:41.983Z,34.40
2022-09-01T12:36:41.975Z,34.46
2022-09-01T12:37:41.942Z,32.60
2022-09-01T12:38:41.952Z,31.68
2022-09-01T12:39:41.923Z,29.37
2022-09-01T12:40:43.163Z,29.39
2022-09-01T12:41:41.931Z,31.43
2022-09-01T12:42:44.190Z,32.96
2022-09-01T12:43:41.915Z,33.80
2022-09-01T12:44:41.885Z,34.73
2022-09-01T12:45:42.946Z,35.94
2022-09-01T12:46:41.927Z,34.25
2022-09-01T12:47:41.888Z,35.34
2022-09-01T12:48:41.858Z,34.55
2022-09-01T12:49:50.198Z,34.31
2022-09-01T12:50:43.585Z,30.85
2022-09-01T12:51:43.844Z,29.44
2022-09-01T12:52:41.844Z,29.47
2022-09-01T12:53:42.571Z,27.64
2022-09-01T12:54:42.829Z,28.37
2022-09-01T12:55:49.005Z,28.79
2022-09-01T12:56:43.842Z,30.09
2022-09-01T12:57:42.171Z,30.79
2022-09-01T12:58:41.805Z,31.59
2022-09-01T12:59:41.799Z,32.42
2022-09-01T13:00:42.410Z,33.42
2022-09-01T13:01:42.126Z,34.43
2022-09-01T13:02:41.901Z,32.71
2022-09-01T13:03:41.778Z,34.03
2022-09-01T13:04:41.757Z,33.83
2022-09-01T13:05:42.656Z,34.43
2022-09-01T13:06:42.778Z,34.05
2022-09-01T13:07:41.750Z,34.64
2022-09-01T13:08:41.739Z,33.85
2022-09-01T13:09:41.730Z,33.97
2022-09-01T13:10:43.218Z,34.34
2022-09-01T13:12:43.747Z,30.32
2022-09-01T13:13:42.494Z,29.24
2022-09-01T13:14:41.710Z,27.31
2022-09-01T13:15:41.692Z,26.09